sensor_id;sensor_type;location;lat;lon;timestamp;P1;durP1;ratioP1;P2;durP2;ratioP2
47519;SDS011;33252;48.122;11.538;2022-10-16T00:01:21;3.40;;;1.90;;
47519;SDS011;33252;48.122;11.538;2022-10-16T00:03:49;3.72;;;2.25;;
47519;SDS011;33252;48.122;11.538;2022-10-16T00:06:17;2.75;;;1.90;;
47519;SDS011;33252;48.122;11.538;2022-10-16T00:08:44;6.13;;;2.13;;
47519;SDS011;33252;48.122;11.538;2022-10-16T00:11:17;4.93;;;2.47;;
47519;SDS011;33252;48.122;11.538;2022-10-16T00:13:44;11.15;;;2.20;;
47519;SDS011;33252;48.122;11.538;2022-10-16T00:16:12;4.68;;;1.77;;
47519;SDS011;33252;48.122;11.538;2022-10-16T00:18:38;3.95;;;2.22;;
47519;SDS011;33252;48.122;11.538;2022-10-16T00:21:08;4.13;;;2.65;;
47519;SDS011;33252;48.122;11.538;2022-10-16T00:23:39;6.43;;;2.30;;
47519;SDS011;33252;48.122;11.538;2022-10-16T00:26:07;3.13;;;2.03;;
47519;SDS011;33252;48.122;11.538;2022-10-16T00:28:35;5.50;;;1.60;;
47519;SDS011;33252;48.122;11.538;2022-10-16T00:31:08;9.93;;;2.50;;
47519;SDS011;33252;48.122;11.538;2022-10-16T00:33:35;3.45;;;1.88;;
47519;SDS011;33252;48.122;11.538;2022-10-16T00:36:03;3.83;;;2.08;;
47519;SDS011;33252;48.122;11.538;2022-10-16T00:38:30;2.78;;;1.75;;
47519;SDS011;33252;48.122;11.538;2022-10-16T00:40:56;3.83;;;1.60;;
47519;SDS011;33252;48.122;11.538;2022-10-16T00:46:28;2.90;;;2.03;;
47519;SDS011;33252;48.122;11.538;2022-10-16T00:49:02;3.67;;;1.80;;
47519;SDS011;33252;48.122;11.538;2022-10-16T00:51:38;2.92;;;2.03;;
47519;SDS011;33252;48.122;11.538;2022-10-16T00:54:12;4.72;;;2.00;;
47519;SDS011;33252;48.122;11.538;2022-10-16T00:56:40;4.18;;;1.95;;
47519;SDS011;33252;48.122;11.538;2022-10-16T00:59:08;4.75;;;2.20;;
47519;SDS011;33252;48.122;11.538;2022-10-16T01:01:51;3.58;;;1.77;;
47519;SDS011;33252;48.122;11.538;2022-10-16T01:04:17;2.17;;;1.73;;
47519;SDS011;33252;48.122;11.538;2022-10-16T01:06:56;6.65;;;2.03;;
47519;SDS011;33252;48.122;11.538;2022-10-16T01:09:52;3.03;;;1.75;;
47519;SDS011;33252;48.122;11.538;2022-10-16T01:12:40;2.65;;;1.48;;
47519;SDS011;33252;48.122;11.538;2022-10-16T01:17:53;3.35;;;1.40;;
47519;SDS011;33252;48.122;11.538;2022-10-16T01:20:44;3.75;;;1.40;;
47519;SDS011;33252;48.122;11.538;2022-10-16T01:28:25;6.47;;;1.48;;
47519;SDS011;33252;48.122;11.538;2022-10-16T01:30:57;2.45;;;1.20;;
47519;SDS011;33252;48.122;11.538;2022-10-16T01:33:26;2.28;;;1.80;;
47519;SDS011;33252;48.122;11.538;2022-10-16T01:35:58;3.15;;;1.27;;
47519;SDS011;33252;48.122;11.538;2022-10-16T01:38:31;4.18;;;1.10;;
47519;SDS011;33252;48.122;11.538;2022-10-16T01:41:01;3.17;;;1.15;;
47519;SDS011;33252;48.122;11.538;2022-10-16T01:43:38;1.90;;;1.23;;
47519;SDS011;33252;48.122;11.538;2022-10-16T01:46:08;2.17;;;1.00;;
47519;SDS011;33252;48.122;11.538;2022-10-16T01:48:35;2.95;;;1.10;;
47519;SDS011;33252;48.122;11.538;2022-10-16T01:51:09;4.10;;;0.95;;
47519;SDS011;33252;48.122;11.538;2022-10-16T01:53:39;1.30;;;0.95;;
47519;SDS011;33252;48.122;11.538;2022-10-16T01:56:07;2.92;;;1.08;;
47519;SDS011;33252;48.122;11.538;2022-10-16T01:58:38;3.05;;;1.10;;
47519;SDS011;33252;48.122;11.538;2022-10-16T02:01:08;1.45;;;0.90;;
47519;SDS011;33252;48.122;11.538;2022-10-16T02:03:37;1.52;;;0.70;;
47519;SDS011;33252;48.122;11.538;2022-10-16T02:06:06;2.83;;;1.05;;
47519;SDS011;33252;48.122;11.538;2022-10-16T02:08:32;1.80;;;0.90;;
47519;SDS011;33252;48.122;11.538;2022-10-16T02:10:59;2.85;;;1.40;;
47519;SDS011;33252;48.122;11.538;2022-10-16T02:16:00;7.15;;;2.15;;
47519;SDS011;33252;48.122;11.538;2022-10-16T02:18:26;3.30;;;1.70;;
47519;SDS011;33252;48.122;11.538;2022-10-16T02:21:02;2.65;;;1.13;;
47519;SDS011;33252;48.122;11.538;2022-10-16T02:26:31;3.10;;;1.35;;
47519;SDS011;33252;48.122;11.538;2022-10-16T02:29:07;4.93;;;1.25;;
47519;SDS011;33252;48.122;11.538;2022-10-16T02:31:38;4.55;;;1.27;;
47519;SDS011;33252;48.122;11.538;2022-10-16T02:34:07;2.67;;;1.33;;
47519;SDS011;33252;48.122;11.538;2022-10-16T02:36:36;2.40;;;1.60;;
47519;SDS011;33252;48.122;11.538;2022-10-16T02:39:03;2.95;;;1.42;;
47519;SDS011;33252;48.122;11.538;2022-10-16T02:41:30;3.60;;;1.92;;
47519;SDS011;33252;48.122;11.538;2022-10-16T02:43:56;3.55;;;1.40;;
47519;SDS011;33252;48.122;11.538;2022-10-16T02:46:21;4.38;;;2.05;;
47519;SDS011;33252;48.122;11.538;2022-10-16T02:48:47;3.17;;;1.40;;
47519;SDS011;33252;48.122;11.538;2022-10-16T02:51:13;3.28;;;1.55;;
47519;SDS011;33252;48.122;11.538;2022-10-16T02:53:39;4.10;;;1.70;;
47519;SDS011;33252;48.122;11.538;2022-10-16T02:56:04;3.22;;;1.80;;
47519;SDS011;33252;48.122;11.538;2022-10-16T02:58:30;2.72;;;1.70;;
47519;SDS011;33252;48.122;11.538;2022-10-16T03:00:56;3.35;;;1.35;;
47519;SDS011;33252;48.122;11.538;2022-10-16T03:03:21;2.03;;;1.00;;
47519;SDS011;33252;48.122;11.538;2022-10-16T03:05:47;5.68;;;1.88;;
47519;SDS011;33252;48.122;11.538;2022-10-16T03:08:13;4.30;;;1.83;;
47519;SDS011;33252;48.122;11.538;2022-10-16T03:10:39;5.95;;;1.90;;
47519;SDS011;33252;48.122;11.538;2022-10-16T03:13:04;3.63;;;2.28;;
47519;SDS011;33252;48.122;11.538;2022-10-16T03:15:30;3.13;;;1.50;;
47519;SDS011;33252;48.122;11.538;2022-10-16T03:17:58;5.32;;;1.42;;
47519;SDS011;33252;48.122;11.538;2022-10-16T03:20:25;1.90;;;1.05;;
47519;SDS011;33252;48.122;11.538;2022-10-16T03:22:51;1.98;;;1.08;;
47519;SDS011;33252;48.122;11.538;2022-10-16T03:25:17;2.58;;;0.95;;
47519;SDS011;33252;48.122;11.538;2022-10-16T03:27:43;1.50;;;1.00;;
47519;SDS011;33252;48.122;11.538;2022-10-16T03:30:08;1.70;;;1.13;;
47519;SDS011;33252;48.122;11.538;2022-10-16T03:32:34;4.20;;;1.60;;
47519;SDS011;33252;48.122;11.538;2022-10-16T03:35:00;3.10;;;1.27;;
47519;SDS011;33252;48.122;11.538;2022-10-16T03:37:26;2.67;;;1.20;;
47519;SDS011;33252;48.122;11.538;2022-10-16T03:39:51;1.45;;;1.02;;
47519;SDS011;33252;48.122;11.538;2022-10-16T03:42:17;1.85;;;1.00;;
47519;SDS011;33252;48.122;11.538;2022-10-16T03:44:43;3.67;;;1.85;;
47519;SDS011;33252;48.122;11.538;2022-10-16T03:47:08;2.17;;;1.40;;
47519;SDS011;33252;48.122;11.538;2022-10-16T03:49:34;4.80;;;1.95;;
47519;SDS011;33252;48.122;11.538;2022-10-16T03:51:59;5.63;;;1.67;;
47519;SDS011;33252;48.122;11.538;2022-10-16T03:54:25;2.75;;;2.00;;
47519;SDS011;33252;48.122;11.538;2022-10-16T03:56:51;4.88;;;2.03;;
47519;SDS011;33252;48.122;11.538;2022-10-16T03:59:16;3.30;;;1.20;;
47519;SDS011;33252;48.122;11.538;2022-10-16T04:01:42;2.30;;;1.42;;
47519;SDS011;33252;48.122;11.538;2022-10-16T04:04:08;2.35;;;1.27;;
47519;SDS011;33252;48.122;11.538;2022-10-16T04:06:33;2.67;;;1.15;;
47519;SDS011;33252;48.122;11.538;2022-10-16T04:08:59;2.97;;;1.40;;
47519;SDS011;33252;48.122;11.538;2022-10-16T04:11:25;1.95;;;1.27;;
47519;SDS011;33252;48.122;11.538;2022-10-16T04:13:51;2.97;;;1.10;;
47519;SDS011;33252;48.122;11.538;2022-10-16T04:16:16;5.38;;;1.33;;
47519;SDS011;33252;48.122;11.538;2022-10-16T04:18:42;3.08;;;1.42;;
47519;SDS011;33252;48.122;11.538;2022-10-16T04:21:07;4.05;;;1.20;;
47519;SDS011;33252;48.122;11.538;2022-10-16T04:23:33;2.15;;;0.95;;
47519;SDS011;33252;48.122;11.538;2022-10-16T04:25:59;1.95;;;1.10;;
47519;SDS011;33252;48.122;11.538;2022-10-16T04:28:25;1.38;;;0.70;;
47519;SDS011;33252;48.122;11.538;2022-10-16T04:30:51;2.60;;;0.80;;
47519;SDS011;33252;48.122;11.538;2022-10-16T04:33:17;2.70;;;1.10;;
47519;SDS011;33252;48.122;11.538;2022-10-16T04:35:43;1.67;;;0.90;;
47519;SDS011;33252;48.122;11.538;2022-10-16T04:38:08;1.38;;;0.60;;
47519;SDS011;33252;48.122;11.538;2022-10-16T04:40:34;1.85;;;0.77;;
47519;SDS011;33252;48.122;11.538;2022-10-16T04:43:02;1.73;;;0.80;;
47519;SDS011;33252;48.122;11.538;2022-10-16T04:45:28;1.40;;;0.70;;
47519;SDS011;33252;48.122;11.538;2022-10-16T04:47:56;1.70;;;0.90;;
47519;SDS011;33252;48.122;11.538;2022-10-16T04:50:22;1.75;;;0.75;;
47519;SDS011;33252;48.122;11.538;2022-10-16T04:52:48;2.25;;;0.93;;
47519;SDS011;33252;48.122;11.538;2022-10-16T04:55:14;1.48;;;1.27;;
47519;SDS011;33252;48.122;11.538;2022-10-16T04:57:40;1.80;;;1.10;;
47519;SDS011;33252;48.122;11.538;2022-10-16T05:00:06;3.95;;;0.63;;
47519;SDS011;33252;48.122;11.538;2022-10-16T05:02:33;1.13;;;0.75;;
47519;SDS011;33252;48.122;11.538;2022-10-16T05:04:59;3.03;;;1.00;;
47519;SDS011;33252;48.122;11.538;2022-10-16T05:07:25;4.30;;;1.30;;
47519;SDS011;33252;48.122;11.538;2022-10-16T05:09:50;1.52;;;0.95;;
47519;SDS011;33252;48.122;11.538;2022-10-16T05:12:16;1.45;;;0.80;;
47519;SDS011;33252;48.122;11.538;2022-10-16T05:14:42;1.48;;;0.82;;
47519;SDS011;33252;48.122;11.538;2022-10-16T05:17:07;1.80;;;0.88;;
47519;SDS011;33252;48.122;11.538;2022-10-16T05:19:33;1.92;;;1.00;;
47519;SDS011;33252;48.122;11.538;2022-10-16T05:21:59;4.03;;;1.15;;
47519;SDS011;33252;48.122;11.538;2022-10-16T05:24:24;2.22;;;1.27;;
47519;SDS011;33252;48.122;11.538;2022-10-16T05:26:50;2.67;;;1.02;;
47519;SDS011;33252;48.122;11.538;2022-10-16T05:29:16;1.98;;;1.00;;
47519;SDS011;33252;48.122;11.538;2022-10-16T05:31:42;2.30;;;1.20;;
47519;SDS011;33252;48.122;11.538;2022-10-16T05:34:08;2.88;;;1.20;;
47519;SDS011;33252;48.122;11.538;2022-10-16T05:36:33;1.73;;;0.88;;
47519;SDS011;33252;48.122;11.538;2022-10-16T05:38:59;2.88;;;0.95;;
47519;SDS011;33252;48.122;11.538;2022-10-16T05:41:25;4.07;;;0.75;;
47519;SDS011;33252;48.122;11.538;2022-10-16T05:43:51;1.38;;;1.05;;
47519;SDS011;33252;48.122;11.538;2022-10-16T05:46:17;2.40;;;1.10;;
47519;SDS011;33252;48.122;11.538;2022-10-16T05:48:43;1.35;;;0.93;;
47519;SDS011;33252;48.122;11.538;2022-10-16T05:51:09;1.45;;;0.93;;
47519;SDS011;33252;48.122;11.538;2022-10-16T05:53:37;3.35;;;1.35;;
47519;SDS011;33252;48.122;11.538;2022-10-16T05:56:04;3.17;;;1.23;;
47519;SDS011;33252;48.122;11.538;2022-10-16T05:58:31;1.98;;;0.90;;
47519;SDS011;33252;48.122;11.538;2022-10-16T06:01:06;3.85;;;1.10;;
47519;SDS011;33252;48.122;11.538;2022-10-16T06:06:06;3.13;;;1.30;;
47519;SDS011;33252;48.122;11.538;2022-10-16T06:08:33;3.65;;;1.67;;
47519;SDS011;33252;48.122;11.538;2022-10-16T06:11:06;1.88;;;1.50;;
47519;SDS011;33252;48.122;11.538;2022-10-16T06:13:33;3.05;;;1.65;;
47519;SDS011;33252;48.122;11.538;2022-10-16T06:15:59;2.97;;;1.70;;
47519;SDS011;33252;48.122;11.538;2022-10-16T06:18:26;2.75;;;1.77;;
47519;SDS011;33252;48.122;11.538;2022-10-16T06:20:53;5.00;;;1.67;;
47519;SDS011;33252;48.122;11.538;2022-10-16T06:23:19;3.97;;;1.30;;
47519;SDS011;33252;48.122;11.538;2022-10-16T06:25:45;4.15;;;1.45;;
47519;SDS011;33252;48.122;11.538;2022-10-16T06:28:10;3.78;;;1.65;;
47519;SDS011;33252;48.122;11.538;2022-10-16T06:30:38;2.85;;;1.45;;
47519;SDS011;33252;48.122;11.538;2022-10-16T06:33:03;3.47;;;1.50;;
47519;SDS011;33252;48.122;11.538;2022-10-16T06:35:29;4.63;;;1.60;;
47519;SDS011;33252;48.122;11.538;2022-10-16T06:37:56;4.32;;;1.83;;
47519;SDS011;33252;48.122;11.538;2022-10-16T06:40:22;3.65;;;1.42;;
47519;SDS011;33252;48.122;11.538;2022-10-16T06:42:48;3.53;;;1.83;;
47519;SDS011;33252;48.122;11.538;2022-10-16T06:45:13;2.03;;;1.83;;
47519;SDS011;33252;48.122;11.538;2022-10-16T06:47:39;2.92;;;1.80;;
47519;SDS011;33252;48.122;11.538;2022-10-16T06:50:05;2.08;;;1.30;;
47519;SDS011;33252;48.122;11.538;2022-10-16T06:52:32;3.92;;;2.28;;
47519;SDS011;33252;48.122;11.538;2022-10-16T06:54:58;3.55;;;1.75;;
47519;SDS011;33252;48.122;11.538;2022-10-16T06:57:24;3.28;;;1.50;;
47519;SDS011;33252;48.122;11.538;2022-10-16T06:59:50;6.63;;;2.00;;
47519;SDS011;33252;48.122;11.538;2022-10-16T07:02:16;4.18;;;2.25;;
47519;SDS011;33252;48.122;11.538;2022-10-16T07:04:41;5.10;;;2.17;;
47519;SDS011;33252;48.122;11.538;2022-10-16T07:07:07;3.63;;;1.60;;
47519;SDS011;33252;48.122;11.538;2022-10-16T07:09:32;3.42;;;1.95;;
47519;SDS011;33252;48.122;11.538;2022-10-16T07:11:58;3.03;;;2.15;;
47519;SDS011;33252;48.122;11.538;2022-10-16T07:14:24;2.92;;;1.92;;
47519;SDS011;33252;48.122;11.538;2022-10-16T07:16:50;3.00;;;2.15;;
47519;SDS011;33252;48.122;11.538;2022-10-16T07:19:15;3.47;;;2.17;;
47519;SDS011;33252;48.122;11.538;2022-10-16T07:21:42;8.68;;;2.35;;
47519;SDS011;33252;48.122;11.538;2022-10-16T07:24:13;3.10;;;1.83;;
47519;SDS011;33252;48.122;11.538;2022-10-16T07:26:40;2.97;;;1.98;;
47519;SDS011;33252;48.122;11.538;2022-10-16T07:29:13;3.42;;;2.13;;
47519;SDS011;33252;48.122;11.538;2022-10-16T07:31:41;2.72;;;1.70;;
47519;SDS011;33252;48.122;11.538;2022-10-16T07:34:10;2.38;;;1.70;;
47519;SDS011;33252;48.122;11.538;2022-10-16T07:36:37;2.70;;;1.65;;
47519;SDS011;33252;48.122;11.538;2022-10-16T07:39:03;2.95;;;1.73;;
47519;SDS011;33252;48.122;11.538;2022-10-16T07:41:29;2.33;;;1.55;;
47519;SDS011;33252;48.122;11.538;2022-10-16T07:43:55;2.85;;;1.58;;
47519;SDS011;33252;48.122;11.538;2022-10-16T07:46:25;2.95;;;1.00;;
47519;SDS011;33252;48.122;11.538;2022-10-16T07:48:51;3.67;;;1.42;;
47519;SDS011;33252;48.122;11.538;2022-10-16T07:51:19;2.08;;;1.38;;
47519;SDS011;33252;48.122;11.538;2022-10-16T07:53:47;2.50;;;1.42;;
47519;SDS011;33252;48.122;11.538;2022-10-16T07:56:14;3.08;;;1.70;;
47519;SDS011;33252;48.122;11.538;2022-10-16T07:58:40;4.32;;;1.58;;
47519;SDS011;33252;48.122;11.538;2022-10-16T08:01:07;5.18;;;1.65;;
47519;SDS011;33252;48.122;11.538;2022-10-16T08:03:34;4.75;;;1.77;;
47519;SDS011;33252;48.122;11.538;2022-10-16T08:06:01;1.50;;;1.20;;
47519;SDS011;33252;48.122;11.538;2022-10-16T08:08:27;4.10;;;1.42;;
47519;SDS011;33252;48.122;11.538;2022-10-16T08:10:53;3.42;;;1.60;;
47519;SDS011;33252;48.122;11.538;2022-10-16T08:13:19;3.22;;;1.60;;
47519;SDS011;33252;48.122;11.538;2022-10-16T08:15:45;4.03;;;1.77;;
47519;SDS011;33252;48.122;11.538;2022-10-16T08:18:12;3.17;;;1.38;;
47519;SDS011;33252;48.122;11.538;2022-10-16T08:20:39;2.17;;;1.42;;
47519;SDS011;33252;48.122;11.538;2022-10-16T08:23:05;1.63;;;1.27;;
47519;SDS011;33252;48.122;11.538;2022-10-16T08:25:33;1.67;;;1.15;;
47519;SDS011;33252;48.122;11.538;2022-10-16T08:28:03;6.45;;;1.40;;
47519;SDS011;33252;48.122;11.538;2022-10-16T08:30:33;2.33;;;1.23;;
47519;SDS011;33252;48.122;11.538;2022-10-16T08:32:59;2.00;;;1.40;;
47519;SDS011;33252;48.122;11.538;2022-10-16T08:35:25;2.47;;;1.30;;
47519;SDS011;33252;48.122;11.538;2022-10-16T08:37:51;2.30;;;1.35;;
47519;SDS011;33252;48.122;11.538;2022-10-16T08:40:18;3.50;;;1.23;;
47519;SDS011;33252;48.122;11.538;2022-10-16T08:42:53;2.17;;;0.95;;
47519;SDS011;33252;48.122;11.538;2022-10-16T08:50:42;2.40;;;0.90;;
47519;SDS011;33252;48.122;11.538;2022-10-16T08:53:13;3.13;;;1.42;;
47519;SDS011;33252;48.122;11.538;2022-10-16T08:55:44;1.70;;;1.30;;
47519;SDS011;33252;48.122;11.538;2022-10-16T08:58:23;2.70;;;1.50;;
47519;SDS011;33252;48.122;11.538;2022-10-16T09:00:56;3.17;;;1.70;;
47519;SDS011;33252;48.122;11.538;2022-10-16T09:06:50;3.60;;;1.27;;
47519;SDS011;33252;48.122;11.538;2022-10-16T09:15:23;2.30;;;1.10;;
47519;SDS011;33252;48.122;11.538;2022-10-16T09:20:17;2.35;;;0.80;;
47519;SDS011;33252;48.122;11.538;2022-10-16T09:22:43;3.95;;;1.30;;
47519;SDS011;33252;48.122;11.538;2022-10-16T09:25:15;1.63;;;1.13;;
47519;SDS011;33252;48.122;11.538;2022-10-16T09:27:45;2.90;;;1.10;;
47519;SDS011;33252;48.122;11.538;2022-10-16T09:30:14;3.30;;;2.42;;
47519;SDS011;33252;48.122;11.538;2022-10-16T09:32:46;3.30;;;2.27;;
47519;SDS011;33252;48.122;11.538;2022-10-16T09:35:31;2.35;;;1.10;;
47519;SDS011;33252;48.122;11.538;2022-10-16T09:38:01;1.55;;;1.20;;
47519;SDS011;33252;48.122;11.538;2022-10-16T09:40:30;2.85;;;1.92;;
47519;SDS011;33252;48.122;11.538;2022-10-16T09:43:23;3.05;;;1.08;;
47519;SDS011;33252;48.122;11.538;2022-10-16T09:45:59;2.20;;;1.70;;
47519;SDS011;33252;48.122;11.538;2022-10-16T09:48:28;3.78;;;1.33;;
47519;SDS011;33252;48.122;11.538;2022-10-16T09:50:59;2.35;;;1.30;;
47519;SDS011;33252;48.122;11.538;2022-10-16T09:53:37;3.13;;;1.25;;
47519;SDS011;33252;48.122;11.538;2022-10-16T09:56:09;1.90;;;1.48;;
47519;SDS011;33252;48.122;11.538;2022-10-16T09:58:41;1.50;;;1.00;;
47519;SDS011;33252;48.122;11.538;2022-10-16T10:01:12;3.50;;;2.03;;
47519;SDS011;33252;48.122;11.538;2022-10-16T10:03:41;2.75;;;1.27;;
47519;SDS011;33252;48.122;11.538;2022-10-16T10:08:54;2.85;;;1.50;;
47519;SDS011;33252;48.122;11.538;2022-10-16T10:12:03;2.50;;;1.67;;
47519;SDS011;33252;48.122;11.538;2022-10-16T10:19:38;3.55;;;1.50;;
47519;SDS011;33252;48.122;11.538;2022-10-16T10:27:50;1.42;;;1.10;;
47519;SDS011;33252;48.122;11.538;2022-10-16T10:38:51;1.73;;;1.15;;
47519;SDS011;33252;48.122;11.538;2022-10-16T10:47:02;2.80;;;0.98;;
47519;SDS011;33252;48.122;11.538;2022-10-16T10:49:44;2.35;;;0.90;;
47519;SDS011;33252;48.122;11.538;2022-10-16T11:02:52;1.20;;;0.90;;
47519;SDS011;33252;48.122;11.538;2022-10-16T11:05:40;2.35;;;0.70;;
47519;SDS011;33252;48.122;11.538;2022-10-16T11:08:18;2.58;;;0.60;;
47519;SDS011;33252;48.122;11.538;2022-10-16T11:13:28;4.13;;;1.15;;
47519;SDS011;33252;48.122;11.538;2022-10-16T11:16:00;1.02;;;0.63;;
47519;SDS011;33252;48.122;11.538;2022-10-16T11:18:39;1.15;;;0.57;;
47519;SDS011;33252;48.122;11.538;2022-10-16T11:21:16;3.33;;;0.82;;
47519;SDS011;33252;48.122;11.538;2022-10-16T11:24:29;2.42;;;1.08;;
47519;SDS011;33252;48.122;11.538;2022-10-16T11:26:52;2.88;;;2.20;;
47519;SDS011;33252;48.122;11.538;2022-10-16T11:29:23;0.75;;;0.50;;
47519;SDS011;33252;48.122;11.538;2022-10-16T11:31:53;1.30;;;0.50;;
47519;SDS011;33252;48.122;11.538;2022-10-16T11:34:57;0.90;;;0.40;;
47519;SDS011;33252;48.122;11.538;2022-10-16T11:37:24;2.33;;;0.40;;
47519;SDS011;33252;48.122;11.538;2022-10-16T11:39:57;0.77;;;0.50;;
47519;SDS011;33252;48.122;11.538;2022-10-16T11:42:34;1.10;;;0.80;;
47519;SDS011;33252;48.122;11.538;2022-10-16T11:47:43;6.43;;;0.93;;
47519;SDS011;33252;48.122;11.538;2022-10-16T11:50:24;0.88;;;0.57;;
47519;SDS011;33252;48.122;11.538;2022-10-16T11:55:48;1.73;;;0.40;;
47519;SDS011;33252;48.122;11.538;2022-10-16T11:58:34;0.63;;;0.40;;
47519;SDS011;33252;48.122;11.538;2022-10-16T12:09:09;1.23;;;0.57;;
47519;SDS011;33252;48.122;11.538;2022-10-16T12:11:41;1.13;;;0.40;;
47519;SDS011;33252;48.122;11.538;2022-10-16T12:16:55;1.13;;;0.55;;
47519;SDS011;33252;48.122;11.538;2022-10-16T12:19:27;1.58;;;0.40;;
47519;SDS011;33252;48.122;11.538;2022-10-16T12:21:58;1.63;;;0.52;;
47519;SDS011;33252;48.122;11.538;2022-10-16T12:24:33;3.00;;;1.30;;
47519;SDS011;33252;48.122;11.538;2022-10-16T12:26:59;1.25;;;0.73;;
47519;SDS011;33252;48.122;11.538;2022-10-16T12:29:38;0.50;;;0.40;;
47519;SDS011;33252;48.122;11.538;2022-10-16T12:34:52;1.02;;;0.43;;
47519;SDS011;33252;48.122;11.538;2022-10-16T12:37:23;0.70;;;0.40;;
47519;SDS011;33252;48.122;11.538;2022-10-16T12:39:51;0.55;;;0.50;;
47519;SDS011;33252;48.122;11.538;2022-10-16T12:44:50;1.13;;;0.50;;
47519;SDS011;33252;48.122;11.538;2022-10-16T12:47:24;1.20;;;0.60;;
47519;SDS011;33252;48.122;11.538;2022-10-16T12:50:03;0.40;;;0.38;;
47519;SDS011;33252;48.122;11.538;2022-10-16T12:52:48;0.82;;;0.40;;
47519;SDS011;33252;48.122;11.538;2022-10-16T12:55:18;0.75;;;0.40;;
47519;SDS011;33252;48.122;11.538;2022-10-16T12:58:03;1.80;;;0.35;;
47519;SDS011;33252;48.122;11.538;2022-10-16T13:00:39;1.38;;;0.60;;
47519;SDS011;33252;48.122;11.538;2022-10-16T13:16:29;0.55;;;0.40;;
47519;SDS011;33252;48.122;11.538;2022-10-16T13:24:25;1.38;;;0.50;;
47519;SDS011;33252;48.122;11.538;2022-10-16T13:29:54;0.82;;;0.50;;
47519;SDS011;33252;48.122;11.538;2022-10-16T13:32:43;0.70;;;0.50;;
47519;SDS011;33252;48.122;11.538;2022-10-16T13:35:32;2.20;;;0.55;;
47519;SDS011;33252;48.122;11.538;2022-10-16T13:38:04;1.08;;;0.80;;
47519;SDS011;33252;48.122;11.538;2022-10-16T13:41:00;2.85;;;0.82;;
47519;SDS011;33252;48.122;11.538;2022-10-16T13:46:15;2.10;;;0.63;;
47519;SDS011;33252;48.122;11.538;2022-10-16T13:48:58;2.53;;;0.60;;
47519;SDS011;33252;48.122;11.538;2022-10-16T13:51:26;2.78;;;0.50;;
47519;SDS011;33252;48.122;11.538;2022-10-16T13:53:54;1.17;;;0.30;;
47519;SDS011;33252;48.122;11.538;2022-10-16T13:56:21;1.00;;;0.30;;
47519;SDS011;33252;48.122;11.538;2022-10-16T13:59:03;0.90;;;0.32;;
47519;SDS011;33252;48.122;11.538;2022-10-16T14:01:47;2.47;;;0.40;;
47519;SDS011;33252;48.122;11.538;2022-10-16T14:04:14;4.45;;;0.70;;
47519;SDS011;33252;48.122;11.538;2022-10-16T14:06:41;1.42;;;0.50;;
47519;SDS011;33252;48.122;11.538;2022-10-16T14:09:25;0.50;;;0.30;;
47519;SDS011;33252;48.122;11.538;2022-10-16T14:11:54;1.85;;;0.50;;
47519;SDS011;33252;48.122;11.538;2022-10-16T14:14:23;0.52;;;0.30;;
47519;SDS011;33252;48.122;11.538;2022-10-16T14:16:49;1.33;;;0.30;;
47519;SDS011;33252;48.122;11.538;2022-10-16T14:19:18;2.38;;;0.55;;
47519;SDS011;33252;48.122;11.538;2022-10-16T14:21:52;0.70;;;0.40;;
47519;SDS011;33252;48.122;11.538;2022-10-16T14:24:22;1.67;;;0.35;;
47519;SDS011;33252;48.122;11.538;2022-10-16T14:26:57;1.75;;;0.40;;
47519;SDS011;33252;48.122;11.538;2022-10-16T14:29:24;1.05;;;0.30;;
47519;SDS011;33252;48.122;11.538;2022-10-16T14:32:04;2.22;;;0.70;;
47519;SDS011;33252;48.122;11.538;2022-10-16T14:34:31;1.73;;;0.40;;
47519;SDS011;33252;48.122;11.538;2022-10-16T14:37:00;1.67;;;0.35;;
47519;SDS011;33252;48.122;11.538;2022-10-16T14:39:33;1.60;;;0.50;;
47519;SDS011;33252;48.122;11.538;2022-10-16T14:42:00;1.00;;;0.40;;
47519;SDS011;33252;48.122;11.538;2022-10-16T14:44:27;0.80;;;0.40;;
47519;SDS011;33252;48.122;11.538;2022-10-16T14:46:56;0.50;;;0.40;;
47519;SDS011;33252;48.122;11.538;2022-10-16T14:49:24;4.82;;;1.20;;
47519;SDS011;33252;48.122;11.538;2022-10-16T14:51:50;5.00;;;2.45;;
47519;SDS011;33252;48.122;11.538;2022-10-16T14:54:17;1.90;;;0.93;;
47519;SDS011;33252;48.122;11.538;2022-10-16T14:56:51;1.30;;;0.68;;
47519;SDS011;33252;48.122;11.538;2022-10-16T14:59:22;1.40;;;0.90;;
47519;SDS011;33252;48.122;11.538;2022-10-16T15:01:53;1.38;;;0.70;;
47519;SDS011;33252;48.122;11.538;2022-10-16T15:04:19;0.98;;;0.55;;
47519;SDS011;33252;48.122;11.538;2022-10-16T15:06:45;3.22;;;0.77;;
47519;SDS011;33252;48.122;11.538;2022-10-16T15:09:10;0.93;;;0.43;;
47519;SDS011;33252;48.122;11.538;2022-10-16T15:11:36;0.88;;;0.50;;
47519;SDS011;33252;48.122;11.538;2022-10-16T15:14:03;2.85;;;0.70;;
47519;SDS011;33252;48.122;11.538;2022-10-16T15:16:29;4.22;;;1.17;;
47519;SDS011;33252;48.122;11.538;2022-10-16T15:18:55;1.95;;;0.98;;
47519;SDS011;33252;48.122;11.538;2022-10-16T15:21:23;1.30;;;0.80;;
47519;SDS011;33252;48.122;11.538;2022-10-16T15:23:52;2.17;;;0.70;;
47519;SDS011;33252;48.122;11.538;2022-10-16T15:26:17;1.13;;;0.73;;
47519;SDS011;33252;48.122;11.538;2022-10-16T15:28:43;3.33;;;1.15;;
47519;SDS011;33252;48.122;11.538;2022-10-16T15:31:09;1.50;;;0.80;;
47519;SDS011;33252;48.122;11.538;2022-10-16T15:33:35;1.65;;;0.77;;
47519;SDS011;33252;48.122;11.538;2022-10-16T15:36:01;1.63;;;0.70;;
47519;SDS011;33252;48.122;11.538;2022-10-16T15:38:27;2.05;;;0.80;;
47519;SDS011;33252;48.122;11.538;2022-10-16T15:40:54;1.90;;;0.68;;
47519;SDS011;33252;48.122;11.538;2022-10-16T15:43:21;2.88;;;0.95;;
47519;SDS011;33252;48.122;11.538;2022-10-16T15:46:09;1.52;;;1.40;;
47519;SDS011;33252;48.122;11.538;2022-10-16T15:48:36;1.48;;;1.00;;
47519;SDS011;33252;48.122;11.538;2022-10-16T15:51:05;1.40;;;0.90;;
47519;SDS011;33252;48.122;11.538;2022-10-16T15:53:32;4.13;;;0.80;;
47519;SDS011;33252;48.122;11.538;2022-10-16T15:56:01;2.70;;;1.00;;
47519;SDS011;33252;48.122;11.538;2022-10-16T15:58:27;1.85;;;0.70;;
47519;SDS011;33252;48.122;11.538;2022-10-16T16:00:54;3.20;;;1.13;;
47519;SDS011;33252;48.122;11.538;2022-10-16T16:03:21;1.67;;;0.77;;
47519;SDS011;33252;48.122;11.538;2022-10-16T16:05:46;2.40;;;0.88;;
47519;SDS011;33252;48.122;11.538;2022-10-16T16:08:12;1.90;;;1.00;;
47519;SDS011;33252;48.122;11.538;2022-10-16T16:10:38;3.60;;;1.20;;
47519;SDS011;33252;48.122;11.538;2022-10-16T16:13:03;1.88;;;1.15;;
47519;SDS011;33252;48.122;11.538;2022-10-16T16:15:29;1.55;;;1.00;;
47519;SDS011;33252;48.122;11.538;2022-10-16T16:17:54;2.15;;;1.20;;
47519;SDS011;33252;48.122;11.538;2022-10-16T16:20:20;3.85;;;2.03;;
47519;SDS011;33252;48.122;11.538;2022-10-16T16:22:46;4.30;;;1.92;;
47519;SDS011;33252;48.122;11.538;2022-10-16T16:25:12;3.90;;;1.90;;
47519;SDS011;33252;48.122;11.538;2022-10-16T16:27:37;4.30;;;1.65;;
47519;SDS011;33252;48.122;11.538;2022-10-16T16:30:04;2.20;;;1.15;;
47519;SDS011;33252;48.122;11.538;2022-10-16T16:32:34;3.42;;;1.80;;
47519;SDS011;33252;48.122;11.538;2022-10-16T16:35:00;2.65;;;1.33;;
47519;SDS011;33252;48.122;11.538;2022-10-16T16:37:27;3.90;;;1.67;;
47519;SDS011;33252;48.122;11.538;2022-10-16T16:39:53;2.40;;;1.17;;
47519;SDS011;33252;48.122;11.538;2022-10-16T16:42:20;3.33;;;1.80;;
47519;SDS011;33252;48.122;11.538;2022-10-16T16:44:47;4.75;;;3.05;;
47519;SDS011;33252;48.122;11.538;2022-10-16T16:47:13;4.45;;;2.15;;
47519;SDS011;33252;48.122;11.538;2022-10-16T16:49:38;4.57;;;2.17;;